Auburn Municipal Airport


Codes: KAUN/AUN
Name: Auburn Municipal Airport
City: Auburn
Country: United States
Elevation: 1539 ft.
Wikipedia:

Photos at Auburn Municipal Airport


   Photos courtesy of SpottingLog. You can add your own sightings and photos by signing up for a free trial today.



No photos found.

Weather at Auburn Municipal Airport


Time (UTC)DescriptionTempratureWindCloud coverageVisibilityPressureHumidity
13-Jun-2024 03:00Clear Sky31°C7 mph, SE0%10000m1009hPa31%
13-Jun-2024 06:00Clear Sky24°C7 mph, SE0%10000m1010hPa38%
13-Jun-2024 09:00Clear Sky16°C2 mph, SE1%10000m1010hPa50%
13-Jun-2024 12:00Clear Sky13°C2 mph, SE1%10000m1011hPa64%
13-Jun-2024 15:00Clear Sky20°C4 mph, SW5%10000m1012hPa44%
13-Jun-2024 18:00Clear Sky26°C7 mph, SW6%10000m1012hPa29%
13-Jun-2024 21:00Clear Sky30°C9 mph, SW3%10000m1012hPa22%
14-Jun-2024 00:00Clear Sky31°C9 mph, SW1%10000m1010hPa17%
14-Jun-2024 03:00Clear Sky23°C4 mph, S0%10000m1012hPa34%
14-Jun-2024 06:00Clear Sky18°C4 mph, E0%10000m1013hPa44%
14-Jun-2024 09:00Clear Sky16°C4 mph, SE0%10000m1013hPa46%
14-Jun-2024 12:00Clear Sky15°C4 mph, SE0%10000m1014hPa50%
14-Jun-2024 15:00Clear Sky21°C4 mph, SE0%10000m1015hPa33%
14-Jun-2024 18:00Clear Sky27°C7 mph, SW0%10000m1015hPa22%
14-Jun-2024 21:00Clear Sky31°C9 mph, SW0%10000m1013hPa19%
15-Jun-2024 00:00Clear Sky31°C9 mph, SW0%10000m1011hPa16%
15-Jun-2024 03:00Broken Clouds26°C9 mph, S76%10000m1012hPa22%
15-Jun-2024 06:00Broken Clouds17°C7 mph, SE62%10000m1014hPa36%
15-Jun-2024 09:00Clear Sky14°C4 mph, E0%10000m1014hPa39%
15-Jun-2024 12:00Clear Sky11°C2 mph, E0%10000m1014hPa39%
15-Jun-2024 15:00Clear Sky18°C2 mph, SW1%10000m1014hPa27%
15-Jun-2024 18:00Clear Sky25°C7 mph, W4%10000m1013hPa19%
15-Jun-2024 21:00Clear Sky29°C9 mph, W7%10000m1011hPa14%
16-Jun-2024 00:00Clear Sky30°C7 mph, W4%10000m1009hPa10%
16-Jun-2024 03:00Clear Sky24°C4 mph, N2%10000m1009hPa19%
16-Jun-2024 06:00Clear Sky18°C4 mph, E1%10000m1010hPa24%
16-Jun-2024 09:00Scattered Clouds16°C4 mph, NE38%10000m1009hPa27%
16-Jun-2024 12:00Broken Clouds15°C4 mph, NE70%10000m1008hPa26%
16-Jun-2024 15:00Scattered Clouds20°C2 mph, SW33%10000m1008hPa22%
16-Jun-2024 18:00Broken Clouds25°C7 mph, W56%10000m1007hPa16%
16-Jun-2024 21:00Broken Clouds30°C9 mph, W54%10000m1005hPa9%
17-Jun-2024 00:00Scattered Clouds31°C9 mph, W31%10000m1004hPa7%
17-Jun-2024 03:00Clear Sky24°C7 mph, SW0%10000m1004hPa20%
17-Jun-2024 06:00Clear Sky17°C7 mph, E0%10000m1005hPa31%
17-Jun-2024 09:00Clear Sky13°C4 mph, E3%10000m1006hPa37%
17-Jun-2024 12:00Clear Sky12°C2 mph, E2%10000m1007hPa40%
17-Jun-2024 15:00Clear Sky18°C4 mph, W0%10000m1007hPa30%
17-Jun-2024 18:00Clear Sky24°C7 mph, W0%10000m1006hPa20%
17-Jun-2024 21:00Clear Sky30°C9 mph, W0%10000m1005hPa14%
18-Jun-2024 00:00Clear Sky31°C7 mph, W1%10000m1004hPa13%